Airport View

Enter AWOS ICAO identifier for current METAR.

ex. KFNL

KFNL 250456Z AUTO 03005KT 10SM CLR 04/01 A3009 RMK AO2 SLP173 T00390006

25 Nov 2017 05:47

Frequency: 135.075

Phone: 970-669-9187

Other Area AWOS: KGXY - KLMO - KEIK - KBDU

TAF AMD KBJC 250249Z 2503/2524 VRB05KT P6SM FEW100 SCT220 FM250500 25007KT P6SM FEW110 SCT220 FM251300 VRB04KT P6SM FEW140 SCT220